Time;durP1;ratioP1;P1;durP2;ratioP2;P2;SDS_P1;SDS_P2;PMS_P1;PMS_P2;Temp;Humidity;BMP_temperature;BMP_pressure;BME280_temperature;BME280_humidity;BME280_pressure;Samples;Min_cycle;Max_cycle;Signal;HPM_P1;HPM_P2
2021/10/04 00:05:42;;;;;;;8.6;5.5;;;;;;;10.41;100;98625.19;;;;
2021/10/04 00:15:37;;;;;;;8.9;5.7;;;;;;;10.19;100;98634.02;;;;
2021/10/04 00:25:36;;;;;;;10.2;6.3;;;;;;;9.92;100;98629.47;;;;
2021/10/04 00:35:35;;;;;;;8.4;5.1;;;;;;;9.68;100;98631.59;;;;
2021/10/04 00:45:34;;;;;;;18.6;6.3;;;;;;;9.55;100;98622.41;;;;
2021/10/04 00:55:33;;;;;;;9.7;6.4;;;;;;;9.42;100;98612.45;;;;
2021/10/04 01:05:32;;;;;;;11.9;7.3;;;;;;;9.27;100;98596.61;;;;
2021/10/04 01:15:31;;;;;;;12.4;7.2;;;;;;;9.11;100;98598;;;;
2021/10/04 01:25:30;;;;;;;9.3;5.2;;;;;;;8.94;100;98600.46;;;;
2021/10/04 01:35:29;;;;;;;8.3;7.4;;;;;;;8.85;100;98610.31;;;;
2021/10/04 01:45:28;;;;;;;10.1;6.9;;;;;;;8.79;100;98606.09;;;;
2021/10/04 01:55:27;;;;;;;8.7;6.3;;;;;;;8.76;100;98601.31;;;;
2021/10/04 02:05:26;;;;;;;10.2;6.2;;;;;;;8.64;100;98615.23;;;;
2021/10/04 02:15:24;;;;;;;7.1;6.1;;;;;;;8.59;100;98613.41;;;;
2021/10/04 02:25:23;;;;;;;8.6;6.1;;;;;;;8.63;100;98607.45;;;;
2021/10/04 02:35:22;;;;;;;9.4;5.7;;;;;;;8.63;100;98602.08;;;;
2021/10/04 02:45:21;;;;;;;6.7;5.3;;;;;;;8.5;100;98599.04;;;;
2021/10/04 02:55:19;;;;;;;8;6;;;;;;;8.38;100;98605.97;;;;
2021/10/04 03:05:18;;;;;;;12;6.7;;;;;;;8.32;100;98601.77;;;;
2021/10/04 03:15:17;;;;;;;10.1;5.9;;;;;;;8.24;100;98605.88;;;;
2021/10/04 03:25:16;;;;;;;8.4;5.9;;;;;;;8.2;100;98607.55;;;;
2021/10/04 03:35:14;;;;;;;8.7;6.9;;;;;;;8.13;100;98606.3;;;;
2021/10/04 03:45:13;;;;;;;9.4;7;;;;;;;8.15;100;98613;;;;
2021/10/04 03:55:12;;;;;;;11.3;7.6;;;;;;;8.13;100;98619.73;;;;
2021/10/04 04:05:10;;;;;;;9.3;6.6;;;;;;;8.04;100;98622.28;;;;
2021/10/04 04:15:09;;;;;;;8.8;6.9;;;;;;;8.02;100;98614.5;;;;
2021/10/04 04:25:08;;;;;;;9.8;6.7;;;;;;;8.07;100;98621.7;;;;
2021/10/04 04:35:08;;;;;;;11.9;8;;;;;;;8.03;100;98621.48;;;;
2021/10/04 04:45:05;;;;;;;11;9.4;;;;;;;8.03;100;98626.05;;;;
2021/10/04 04:55:04;;;;;;;10.8;7.7;;;;;;;8.06;100;98630.83;;;;
2021/10/04 05:05:03;;;;;;;12.6;9.2;;;;;;;8.12;100;98628.89;;;;
2021/10/04 05:15:02;;;;;;;17.1;9.8;;;;;;;8.32;100;98626.73;;;;
2021/10/04 05:25:01;;;;;;;13.6;8.5;;;;;;;8.52;100;98633.67;;;;
2021/10/04 05:35:00;;;;;;;9.9;8.4;;;;;;;8.75;100;98635.44;;;;
2021/10/04 05:44:59;;;;;;;18.9;9.3;;;;;;;9.14;100;98648.48;;;;
2021/10/04 05:54:58;;;;;;;19.4;10.2;;;;;;;9.61;100;98647.34;;;;
2021/10/04 06:04:57;;;;;;;11.8;9.6;;;;;;;10.05;100;98644;;;;
2021/10/04 06:14:57;;;;;;;23.8;12;;;;;;;10.43;100;98644.52;;;;
2021/10/04 06:24:57;;;;;;;13.4;9.3;;;;;;;10.93;100;98650.61;;;;
2021/10/04 06:34:57;;;;;;;12.5;9;;;;;;;11.65;100;98650.31;;;;
2021/10/04 06:44:57;;;;;;;13.6;6.8;;;;;;;12.6;100;98654.77;;;;
2021/10/04 06:54:52;;;;;;;17.6;13;;;;;;;13.33;100;98669.19;;;;
2021/10/04 07:04:52;;;;;;;11.5;9;;;;;;;13.94;100;98686.77;;;;
2021/10/04 07:14:52;;;;;;;14.1;9.8;;;;;;;14.53;100;98691.06;;;;
2021/10/04 07:24:51;;;;;;;13.2;9.2;;;;;;;15.02;100;98694.01;;;;
2021/10/04 07:34:50;;;;;;;12.6;10.1;;;;;;;15.5;100;98702.33;;;;
2021/10/04 07:44:50;;;;;;;11.8;7.9;;;;;;;15.99;100;98711.33;;;;
2021/10/04 07:54:50;;;;;;;11.1;7.6;;;;;;;16.44;100;98708.45;;;;
2021/10/04 08:04:49;;;;;;;12.4;7.1;;;;;;;16.74;100;98706.25;;;;
2021/10/04 08:14:49;;;;;;;13.3;7.9;;;;;;;17.26;100;98700.72;;;;
2021/10/04 08:24:49;;;;;;;10.9;7.5;;;;;;;17.75;100;98697.72;;;;
2021/10/04 08:34:49;;;;;;;13.9;8;;;;;;;18.28;100;98696.28;;;;
2021/10/04 08:44:50;;;;;;;13.3;8.4;;;;;;;18.83;100;98708.82;;;;
2021/10/04 08:54:49;;;;;;;15.7;8;;;;;;;19.2;100;98695.5;;;;
2021/10/04 09:04:49;;;;;;;20;7.6;;;;;;;19.33;100;98696.94;;;;
2021/10/04 09:14:49;;;;;;;9.7;5.9;;;;;;;19.93;100;98695.27;;;;
2021/10/04 09:24:50;;;;;;;21.8;8.7;;;;;;;20.47;100;98689.48;;;;
2021/10/04 09:34:50;;;;;;;13;7.2;;;;;;;20.29;100;98697.44;;;;
2021/10/04 09:44:51;;;;;;;10.8;7;;;;;;;20.9;100;98699.83;;;;
2021/10/04 09:54:51;;;;;;;13.4;6.6;;;;;;;20.91;100;98701.42;;;;
2021/10/04 10:04:51;;;;;;;11.9;7.3;;;;;;;21.26;100;98692.05;;;;
2021/10/04 10:14:52;;;;;;;13.3;6.4;;;;;;;21.5;100;98686.04;;;;
2021/10/04 10:24:52;;;;;;;11;6;;;;;;;21.73;100;98694.88;;;;
2021/10/04 10:35:04;;;;;;;13.1;6.4;;;;;;;21.76;100;98683.16;;;;
2021/10/04 10:44:53;;;;;;;13.1;5.8;;;;;;;21.73;100;98686.64;;;;
2021/10/04 10:54:54;;;;;;;8.8;4.4;;;;;;;22.12;100;98677.96;;;;
2021/10/04 11:04:54;;;;;;;10.1;5.8;;;;;;;22.1;100;98680.31;;;;
2021/10/04 11:14:55;;;;;;;8.4;5.4;;;;;;;22.43;100;98675.43;;;;
2021/10/04 11:24:55;;;;;;;11.2;5.5;;;;;;;22.21;100;98664.71;;;;
2021/10/04 11:34:56;;;;;;;9.7;6.1;;;;;;;22.74;100;98665.8;;;;
2021/10/04 11:45:00;;;;;;;7.4;5.5;;;;;;;22.88;100;98665.86;;;;
2021/10/04 11:54:58;;;;;;;11.5;5.6;;;;;;;23.08;100;98652.59;;;;
2021/10/04 12:04:58;;;;;;;8.4;4.7;;;;;;;23.01;100;98658.84;;;;
2021/10/04 12:14:59;;;;;;;9.9;4.8;;;;;;;23.06;100;98641.19;;;;
2021/10/04 12:24:59;;;;;;;14.8;5.5;;;;;;;23.23;100;98634.94;;;;
2021/10/04 12:35:00;;;;;;;15.7;6;;;;;;;23.36;100;98635.38;;;;
2021/10/04 12:45:01;;;;;;;14.8;5.2;;;;;;;23.59;100;98638.56;;;;
2021/10/04 12:55:02;;;;;;;13.4;7.7;;;;;;;23.62;100;98637.77;;;;
2021/10/04 13:05:02;;;;;;;12.3;5.6;;;;;;;23.73;100;98627.56;;;;
2021/10/04 13:15:03;;;;;;;11.2;5.8;;;;;;;23.76;100;98640.53;;;;
2021/10/04 13:25:04;;;;;;;11.6;5.9;;;;;;;23.41;100;98627.55;;;;
2021/10/04 13:35:05;;;;;;;12.5;6.6;;;;;;;23.49;100;98644.84;;;;
2021/10/04 13:45:05;;;;;;;9.6;6;;;;;;;23.81;100;98653.88;;;;
2021/10/04 13:55:06;;;;;;;11.4;6.2;;;;;;;23.95;100;98659.39;;;;
2021/10/04 14:05:07;;;;;;;10.8;5.6;;;;;;;23.21;100;98658.52;;;;
2021/10/04 14:15:08;;;;;;;11.8;6.2;;;;;;;23.29;100;98654.61;;;;
2021/10/04 14:25:08;;;;;;;10.2;5.7;;;;;;;23.62;100;98646.03;;;;
2021/10/04 14:35:09;;;;;;;10.4;5.8;;;;;;;23.52;100;98661.36;;;;
2021/10/04 14:45:10;;;;;;;10;6.9;;;;;;;23.54;100;98663.7;;;;
2021/10/04 14:55:11;;;;;;;9.5;7.4;;;;;;;23.17;100;98674.21;;;;
2021/10/04 15:05:11;;;;;;;9.3;6.5;;;;;;;22.76;100;98674.47;;;;
2021/10/04 15:15:12;;;;;;;11.8;6.2;;;;;;;22.74;100;98682.3;;;;
2021/10/04 15:25:13;;;;;;;12.4;6.9;;;;;;;22.33;100;98686.34;;;;
2021/10/04 15:35:13;;;;;;;10.5;6.2;;;;;;;21.8;100;98689.45;;;;
2021/10/04 15:45:14;;;;;;;8.8;6.7;;;;;;;21.21;100;98695.91;;;;
2021/10/04 15:55:14;;;;;;;10.8;7.4;;;;;;;20.51;100;98696.57;;;;
2021/10/04 16:05:16;;;;;;;12.9;8.4;;;;;;;19.77;100;98706.36;;;;
2021/10/04 16:15:15;;;;;;;11;8.2;;;;;;;19.09;100;98712.48;;;;
2021/10/04 16:25:15;;;;;;;14.4;11.1;;;;;;;18.46;100;98717.38;;;;
2021/10/04 16:35:15;;;;;;;29;17.6;;;;;;;17.84;100;98731.84;;;;
2021/10/04 16:45:15;;;;;;;20.5;15.5;;;;;;;17.27;100;98739.65;;;;
2021/10/04 16:55:15;;;;;;;39.7;23.5;;;;;;;16.64;100;98750.28;;;;
2021/10/04 17:05:15;;;;;;;17;11.9;;;;;;;16.37;100;98756.41;;;;
2021/10/04 17:15:15;;;;;;;13.3;9.4;;;;;;;16.07;100;98761.26;;;;
2021/10/04 17:25:15;;;;;;;17.8;11.8;;;;;;;15.66;100;98769.58;;;;
2021/10/04 17:35:15;;;;;;;18.5;14.5;;;;;;;15.43;100;98769.95;;;;
2021/10/04 17:45:14;;;;;;;16.1;11.2;;;;;;;15.13;100;98756.83;;;;
2021/10/04 17:55:17;;;;;;;17.3;13.2;;;;;;;14.93;100;98770.06;;;;
2021/10/04 18:05:14;;;;;;;54.5;40;;;;;;;14.74;100;98783.3;;;;
2021/10/04 18:15:13;;;;;;;45.8;34;;;;;;;14.51;100;98784.7;;;;
2021/10/04 18:25:14;;;;;;;21.4;17.3;;;;;;;14.24;100;98791.36;;;;
2021/10/04 18:35:12;;;;;;;23.6;15.7;;;;;;;14.04;100;98798.31;;;;
2021/10/04 18:45:12;;;;;;;17.3;12.8;;;;;;;13.93;100;98799.78;;;;
2021/10/04 18:55:11;;;;;;;41;29.6;;;;;;;13.78;100;98808.42;;;;
2021/10/04 19:05:11;;;;;;;28.3;24.8;;;;;;;13.59;100;98810.7;;;;
2021/10/04 19:15:10;;;;;;;25.6;19.7;;;;;;;13.64;100;98813.23;;;;
2021/10/04 19:25:10;;;;;;;21.5;17.3;;;;;;;13.92;100;98800.89;;;;
2021/10/04 19:35:09;;;;;;;19.2;14.9;;;;;;;14.21;100;98816.41;;;;
2021/10/04 19:45:09;;;;;;;26.7;17;;;;;;;14.46;100;98822.88;;;;
2021/10/04 19:55:08;;;;;;;16.3;13.2;;;;;;;14.6;100;98832.38;;;;
2021/10/04 20:05:08;;;;;;;25.1;15.8;;;;;;;14.78;100;98832.28;;;;
2021/10/04 20:15:07;;;;;;;22.6;16.1;;;;;;;14.82;100;98828.56;;;;
2021/10/04 20:25:10;;;;;;;17.5;14.9;;;;;;;14.93;100;98832.48;;;;
2021/10/04 20:35:07;;;;;;;20.4;14.4;;;;;;;14.9;100;98829.63;;;;
2021/10/04 20:45:06;;;;;;;19.4;15.2;;;;;;;14.79;100;98840.07;;;;
2021/10/04 20:55:06;;;;;;;19.8;17.7;;;;;;;14.45;100;98832.13;;;;
2021/10/04 21:05:06;;;;;;;19.9;16.2;;;;;;;14.07;100;98834.8;;;;
2021/10/04 21:15:06;;;;;;;17.6;15;;;;;;;13.77;100;98838.55;;;;
2021/10/04 21:25:07;;;;;;;22.9;17.1;;;;;;;13.47;100;98826.8;;;;
2021/10/04 21:35:04;;;;;;;19.4;14.1;;;;;;;13.24;100;98822.67;;;;
2021/10/04 21:45:03;;;;;;;19.7;13.8;;;;;;;13.03;100;98817.88;;;;
2021/10/04 21:55:02;;;;;;;18.3;16.4;;;;;;;12.86;100;98817.86;;;;
2021/10/04 22:15:01;;;;;;;19.3;16.4;;;;;;;12.49;100;98808.41;;;;
2021/10/04 22:25:00;;;;;;;17.2;14.7;;;;;;;12.31;100;98804.06;;;;
2021/10/04 22:35:00;;;;;;;21.5;16;;;;;;;12.19;100;98793.03;;;;
2021/10/04 22:44:59;;;;;;;19.2;15.3;;;;;;;12.19;100;98786.83;;;;
2021/10/04 22:54:58;;;;;;;15.4;13.9;;;;;;;12.22;100;98770.78;;;;
2021/10/04 23:04:57;;;;;;;17.4;14.5;;;;;;;12.13;100;98774.58;;;;
2021/10/04 23:14:57;;;;;;;18.4;13;;;;;;;12.14;100;98778.88;;;;
2021/10/04 23:24:56;;;;;;;17.9;12.8;;;;;;;12.03;100;98784.56;;;;
2021/10/04 23:34:55;;;;;;;18.9;14.1;;;;;;;12.02;100;98779.46;;;;
2021/10/04 23:44:54;;;;;;;16.5;14.8;;;;;;;11.93;100;98784.04;;;;
2021/10/04 23:54:53;;;;;;;19.7;15.2;;;;;;;11.98;100;98776.58;;;;
